Rio Vista, CA (94571)

4:17 PM PDT on August 25, 2016 (GMT -0700)
| | Change Station

Elev -9999 ft 0.00 °N, 0.00 °E | Updated

Clear
Clear
78 °F
Feels Like 78 °F
N
16
Wind Variable Wind from WSW
Gusts 20 mph

Today
High -- | Low -- °F
--% Chance of Precip.
Yesterday
High -- | Low -- °F
Precip. -- in
Pressure 29.82 in
Visibility 10.0 miles
Clouds Clear
Dew Point 52 °F
Humidity 41%
Rainfall --
Snow Depth Not available.
6:31 AM 7:45 PM
Last Quarter, 41% visible
METAR KSUU 252258Z AUTO 24016KT 10SM CLR 29/12 A2980 RMK AO2 SLP098 T02870118 PWINO PNO $
Pressure 29.82 in
Visibility 10.0 miles
Clouds Clear
Dew Point 52 °F
Humidity 41%
Rainfall --
Snow Depth Not available.
6:31 AM 7:45 PM
Last Quarter, 41% visible
METAR KSUU 252258Z AUTO 24016KT 10SM CLR 29/12 A2980 RMK AO2 SLP098 T02870118 PWINO PNO $
A tropical disturbance pushing toward the Bahamas, is expected to develop into a tropical depression or storm, and will likely target Florida and the Gulf Coast this weekend into next week.

Right now, the disturbance remains a broad area of low pressure pushing through the Dominican Republic and Haiti, headed toward the southeast Bahamas. Rainfall totals over 3 inches (with locally higher amounts) are expected in HispaƱiola, particularly over elevated terrain.

10-Day Weather Forecast

Almanac

Astronomy

Aug. 25, 2016 Rise Set
Actual Time
Civil Twilight
Nautical Twilight
Astronomical Twilight
Moon
Length of Visible Light
Length of Day
Tomorrow will be .
, % of the Moon is Illuminated

Today's Extremes

State Highs State Lows

Community

WunderPhotos

Upload Photos

1,934,956 photos uploaded!

WunderBlog® & News

Nearby

Air Quality

  Air Quality AQ Index Pollutant
Not available.

Snow Depth

Station Depth Elevation

Earthquake Activity

City Distance Mag. Time & Date
Minimum magnitude displayed is 2.5.

Coastal Water Temperatures

Place Temperature

Stations

Nearby Weather Stations

Station Location Temp. Windchill Dew Point Humidity Wind Precip. Elev Updated Type
                   

Watches & Warnings

There are currently no watches in effect.